createdAt,value
2019-03-06T00:00:29.600Z,3.90
2019-03-06T00:02:58.345Z,4.35
2019-03-06T00:05:27.087Z,4.03
2019-03-06T00:07:55.939Z,5.60
2019-03-06T00:10:30.418Z,3.80
2019-03-06T00:12:59.219Z,3.83
2019-03-06T00:15:27.874Z,2.50
2019-03-06T00:17:56.602Z,2.57
2019-03-06T00:20:25.344Z,2.00
2019-03-06T00:22:54.127Z,2.87
2019-03-06T00:25:22.803Z,1.80
2019-03-06T00:27:51.541Z,3.40
2019-03-06T00:30:20.577Z,7.27
2019-03-06T00:32:49.419Z,3.50
2019-03-06T00:35:25.504Z,3.20
2019-03-06T00:37:54.241Z,4.20
2019-03-06T00:40:30.658Z,2.92
2019-03-06T00:42:59.390Z,3.10
2019-03-06T00:45:28.133Z,3.40
2019-03-06T00:47:56.898Z,6.15
2019-03-06T00:50:25.661Z,6.23
2019-03-06T00:52:54.343Z,7.27
2019-03-06T00:55:23.111Z,6.77
2019-03-06T00:57:51.803Z,6.23
2019-03-06T01:00:23.099Z,5.80
2019-03-06T01:02:51.952Z,7.60
2019-03-06T01:05:20.916Z,7.87
2019-03-06T01:07:49.675Z,5.50
2019-03-06T01:10:18.451Z,3.87
2019-03-06T01:12:48.079Z,3.60
2019-03-06T01:15:17.843Z,3.77
2019-03-06T01:17:46.606Z,4.37
2019-03-06T01:20:15.959Z,3.80
2019-03-06T01:22:44.714Z,4.83
2019-03-06T01:25:16.057Z,7.40
2019-03-06T01:27:44.809Z,5.35
2019-03-06T01:30:16.621Z,7.07
2019-03-06T01:32:47.250Z,7.20
2019-03-06T01:35:17.652Z,7.30
2019-03-06T01:37:48.044Z,4.70
2019-03-06T01:40:24.107Z,5.12
2019-03-06T01:42:57.512Z,4.97
2019-03-06T01:45:26.273Z,3.90
2019-03-06T01:47:55.034Z,3.85
2019-03-06T01:50:23.794Z,3.80
2019-03-06T01:52:52.555Z,5.23
2019-03-06T01:55:21.321Z,3.53
2019-03-06T01:57:50.083Z,2.97
2019-03-06T02:00:18.906Z,2.83
2019-03-06T02:02:47.679Z,3.40
2019-03-06T02:05:16.638Z,4.20
2019-03-06T02:07:45.388Z,2.17
2019-03-06T02:10:15.209Z,3.77
2019-03-06T02:12:44.059Z,2.00
2019-03-06T02:15:16.304Z,2.30
2019-03-06T02:17:45.058Z,3.20
2019-03-06T02:20:18.068Z,3.13
2019-03-06T02:22:46.914Z,2.90
2019-03-06T02:25:15.771Z,6.07
2019-03-06T02:27:44.743Z,4.53
2019-03-06T02:30:22.101Z,7.27
2019-03-06T02:32:50.945Z,8.57
2019-03-06T02:35:19.780Z,6.37
2019-03-06T02:37:48.581Z,6.37
2019-03-06T02:40:17.346Z,7.27
2019-03-06T02:42:46.123Z,6.20
2019-03-06T02:45:19.764Z,7.27
2019-03-06T02:47:48.526Z,5.07
2019-03-06T02:50:19.029Z,5.57
2019-03-06T02:52:48.015Z,2.20
2019-03-06T02:55:17.748Z,4.77
2019-03-06T02:57:50.905Z,4.07
2019-03-06T03:00:24.269Z,3.97
2019-03-06T03:02:54.790Z,3.07
2019-03-06T03:05:25.181Z,3.62
2019-03-06T03:07:53.887Z,4.55
2019-03-06T03:10:22.659Z,4.40
2019-03-06T03:12:51.424Z,3.47
2019-03-06T03:15:21.020Z,3.83
2019-03-06T03:17:49.786Z,3.30
2019-03-06T03:20:18.561Z,2.83
2019-03-06T03:22:47.311Z,2.40
2019-03-06T03:25:16.172Z,3.17
2019-03-06T03:27:45.065Z,3.30
2019-03-06T03:30:15.426Z,2.80
2019-03-06T03:32:44.191Z,2.62
2019-03-06T03:35:12.956Z,4.83
2019-03-06T03:37:41.723Z,3.23
2019-03-06T03:40:13.331Z,2.90
2019-03-06T03:42:42.052Z,2.93
2019-03-06T03:45:13.673Z,2.90
2019-03-06T03:47:42.440Z,2.77
2019-03-06T03:50:11.206Z,2.70
2019-03-06T03:52:40.276Z,2.77
2019-03-06T03:55:16.669Z,2.50
2019-03-06T03:57:45.468Z,3.47
2019-03-06T04:00:23.631Z,2.90
2019-03-06T04:02:52.701Z,3.47
2019-03-06T04:05:21.460Z,2.73
2019-03-06T04:07:50.239Z,2.87
2019-03-06T04:10:19.043Z,3.23
2019-03-06T04:12:47.727Z,6.20
2019-03-06T04:15:19.446Z,7.00
2019-03-06T04:17:49.043Z,12.27
2019-03-06T04:20:18.113Z,2.67
2019-03-06T04:22:46.855Z,3.43
2019-03-06T04:25:15.680Z,3.13
2019-03-06T04:27:44.454Z,2.90
2019-03-06T04:30:20.444Z,4.27
2019-03-06T04:32:49.208Z,2.90
2019-03-06T04:35:17.943Z,2.67
2019-03-06T04:37:46.591Z,2.40
2019-03-06T04:40:15.732Z,2.80
2019-03-06T04:42:44.547Z,3.43
2019-03-06T04:45:17.962Z,2.73
2019-03-06T04:47:46.689Z,3.27
2019-03-06T04:50:15.723Z,3.67
2019-03-06T04:52:44.657Z,3.37
2019-03-06T04:55:14.801Z,2.90
2019-03-06T04:57:43.524Z,3.33
2019-03-06T05:00:22.829Z,6.50
2019-03-06T05:02:51.866Z,5.17
2019-03-06T05:05:20.603Z,3.17
2019-03-06T05:07:49.347Z,3.57
2019-03-06T05:10:18.073Z,4.07
2019-03-06T05:12:46.815Z,3.60
2019-03-06T05:15:17.429Z,9.93
2019-03-06T05:17:47.912Z,10.10
2019-03-06T05:20:17.782Z,5.25
2019-03-06T05:22:46.532Z,3.50
2019-03-06T05:25:15.264Z,4.87
2019-03-06T05:27:44.131Z,22.00
2019-03-06T05:30:15.607Z,6.00
2019-03-06T05:32:46.648Z,6.07
2019-03-06T05:35:29.971Z,8.50
2019-03-06T05:38:10.955Z,6.73
2019-03-06T05:40:39.699Z,9.33
2019-03-06T05:43:08.446Z,7.67
2019-03-06T05:45:37.186Z,7.13
2019-03-06T05:48:05.927Z,5.97
2019-03-06T05:50:34.590Z,5.50
2019-03-06T05:53:03.325Z,6.40
2019-03-06T05:55:32.086Z,6.90
2019-03-06T05:58:00.751Z,3.33
2019-03-06T06:00:30.763Z,3.23
2019-03-06T06:02:59.563Z,3.70
2019-03-06T06:05:28.203Z,2.97
2019-03-06T06:07:56.910Z,3.43
2019-03-06T06:10:25.575Z,2.70
2019-03-06T06:12:54.322Z,2.58
2019-03-06T06:15:23.056Z,5.08
2019-03-06T06:17:51.795Z,7.80
2019-03-06T06:20:21.347Z,2.27
2019-03-06T06:22:51.747Z,2.42
2019-03-06T06:25:20.445Z,5.75
2019-03-06T06:27:49.138Z,2.52
2019-03-06T06:30:18.347Z,3.02
2019-03-06T06:32:47.083Z,2.67
2019-03-06T06:35:15.830Z,3.60
2019-03-06T06:37:44.558Z,2.80
2019-03-06T06:40:14.208Z,8.13
2019-03-06T06:42:42.940Z,5.25
2019-03-06T06:45:16.818Z,7.47
2019-03-06T06:48:13.807Z,4.95
2019-03-06T06:51:01.966Z,3.85
2019-03-06T06:53:45.135Z,7.92
2019-03-06T06:56:41.933Z,4.60
2019-03-06T06:59:28.439Z,3.85
2019-03-06T07:02:13.515Z,4.87
2019-03-06T07:05:06.078Z,8.83
2019-03-06T07:07:36.422Z,5.92
2019-03-06T07:10:08.551Z,2.77
2019-03-06T07:12:47.618Z,4.17
2019-03-06T07:15:20.715Z,6.57
2019-03-06T07:17:51.105Z,12.00
2019-03-06T07:20:21.473Z,3.37
2019-03-06T07:22:51.777Z,3.65
2019-03-06T07:25:24.827Z,4.90
2019-03-06T07:27:55.154Z,3.60
2019-03-06T07:30:31.271Z,3.72
2019-03-06T07:33:10.411Z,3.87
2019-03-06T07:36:04.810Z,3.73
2019-03-06T07:38:34.022Z,3.10
2019-03-06T07:41:07.139Z,3.23
2019-03-06T07:43:40.198Z,4.53
2019-03-06T07:46:25.074Z,5.93
2019-03-06T07:49:10.002Z,5.93
2019-03-06T07:51:46.381Z,7.03
2019-03-06T07:54:19.485Z,5.40
2019-03-06T07:56:52.602Z,5.60
2019-03-06T07:59:21.338Z,6.70
2019-03-06T08:01:59.083Z,8.10
2019-03-06T08:04:27.817Z,5.63
2019-03-06T08:06:58.179Z,5.87
2019-03-06T08:09:26.916Z,3.27
2019-03-06T08:12:06.008Z,4.27
2019-03-06T08:14:51.159Z,3.83
2019-03-06T08:17:27.582Z,4.67
2019-03-06T08:20:00.869Z,5.10
2019-03-06T08:22:49.315Z,11.90
2019-03-06T08:25:22.679Z,13.70
2019-03-06T08:27:51.368Z,8.13
2019-03-06T08:30:20.067Z,4.33
2019-03-06T08:32:48.803Z,5.43
2019-03-06T08:35:17.539Z,4.83
2019-03-06T08:37:46.282Z,11.03
2019-03-06T08:40:15.119Z,7.37
2019-03-06T08:42:43.850Z,5.07
2019-03-06T08:45:15.709Z,9.97
2019-03-06T08:47:54.916Z,5.50
2019-03-06T08:50:34.090Z,7.80
2019-03-06T08:53:13.377Z,7.47
2019-03-06T08:55:43.738Z,5.28
2019-03-06T08:58:14.415Z,9.65
2019-03-06T09:01:01.141Z,6.15
2019-03-06T09:03:31.808Z,4.40
2019-03-06T09:06:20.127Z,9.38
2019-03-06T09:09:06.707Z,8.47
2019-03-06T09:11:37.083Z,4.40
2019-03-06T09:14:07.463Z,6.08
2019-03-06T09:16:37.839Z,5.00
2019-03-06T09:19:26.107Z,5.78
2019-03-06T09:21:56.426Z,5.70
2019-03-06T09:24:32.313Z,7.15
2019-03-06T09:27:05.282Z,5.53
2019-03-06T09:29:38.550Z,11.73
2019-03-06T09:32:14.915Z,5.97
2019-03-06T09:34:51.319Z,12.33
2019-03-06T09:37:30.477Z,4.65
2019-03-06T09:40:06.562Z,10.53
2019-03-06T09:42:36.879Z,6.73
2019-03-06T09:45:09.058Z,6.00
2019-03-06T09:47:39.393Z,23.75
2019-03-06T09:50:14.582Z,5.45
2019-03-06T09:52:53.679Z,4.47
2019-03-06T09:55:32.784Z,4.87
2019-03-06T09:58:08.871Z,11.93
2019-03-06T10:00:45.603Z,5.72
2019-03-06T10:03:28.064Z,5.37
2019-03-06T10:06:10.087Z,6.35
2019-03-06T10:08:46.196Z,5.95
2019-03-06T10:11:17.254Z,3.65
2019-03-06T10:13:56.839Z,3.45
2019-03-06T10:16:32.665Z,4.10
2019-03-06T10:19:10.244Z,5.28
2019-03-06T10:21:39.175Z,4.00
2019-03-06T10:24:07.910Z,4.65
2019-03-06T10:26:36.656Z,7.97
2019-03-06T10:29:05.482Z,4.47
2019-03-06T10:31:34.226Z,5.70
2019-03-06T10:34:02.955Z,5.05
2019-03-06T10:36:31.693Z,3.52
2019-03-06T10:39:00.432Z,4.03
2019-03-06T10:41:29.159Z,3.35
2019-03-06T10:43:57.887Z,5.72
2019-03-06T10:46:26.635Z,4.33
2019-03-06T10:48:55.332Z,3.20
2019-03-06T10:51:24.108Z,5.15
2019-03-06T10:53:52.845Z,3.55
2019-03-06T10:56:21.771Z,4.05
2019-03-06T10:58:50.578Z,7.95
2019-03-06T11:01:19.506Z,4.20
2019-03-06T11:03:52.601Z,5.33
2019-03-06T11:06:21.331Z,5.80
2019-03-06T11:08:50.050Z,4.95
2019-03-06T11:11:19.079Z,5.35
2019-03-06T11:13:47.818Z,5.25
2019-03-06T11:16:17.944Z,7.22
2019-03-06T11:18:46.888Z,4.60
2019-03-06T11:21:15.621Z,3.77
2019-03-06T11:23:44.320Z,5.80
2019-03-06T11:26:13.021Z,4.28
2019-03-06T11:28:41.751Z,4.40
2019-03-06T11:31:10.678Z,6.03
2019-03-06T11:33:39.510Z,6.15
2019-03-06T11:36:08.443Z,5.47
2019-03-06T11:38:37.171Z,5.58
2019-03-06T11:41:06.498Z,4.45
2019-03-06T11:43:35.227Z,6.37
2019-03-06T11:46:04.525Z,5.22
2019-03-06T11:48:33.253Z,5.97
2019-03-06T11:51:02.035Z,5.45
2019-03-06T11:53:32.773Z,6.37
2019-03-06T11:56:01.199Z,5.87
2019-03-06T11:58:30.029Z,5.95
2019-03-06T12:00:58.770Z,5.45
2019-03-06T12:03:27.898Z,5.03
2019-03-06T12:05:57.037Z,4.42
2019-03-06T12:08:25.775Z,4.40
2019-03-06T12:10:54.703Z,4.45
2019-03-06T12:13:23.402Z,4.28
2019-03-06T12:15:52.476Z,3.42
2019-03-06T12:18:24.462Z,4.67
2019-03-06T12:20:54.337Z,4.67
2019-03-06T12:23:23.081Z,4.47
2019-03-06T12:25:51.806Z,4.08
2019-03-06T12:28:20.494Z,5.10
2019-03-06T12:30:49.178Z,4.22
2019-03-06T12:33:22.860Z,4.42
2019-03-06T12:35:51.697Z,5.42
2019-03-06T12:38:20.435Z,5.78
2019-03-06T12:40:49.174Z,5.65
2019-03-06T12:43:17.912Z,6.03
2019-03-06T12:46:06.100Z,6.20
2019-03-06T12:48:34.835Z,6.72
2019-03-06T12:51:04.423Z,8.95
2019-03-06T12:53:33.207Z,9.00
2019-03-06T12:56:03.633Z,6.35
2019-03-06T12:58:32.291Z,5.15
2019-03-06T13:01:01.019Z,5.28
2019-03-06T13:03:29.685Z,5.25
2019-03-06T13:05:58.418Z,5.15
2019-03-06T13:08:27.149Z,7.62
2019-03-06T13:10:58.450Z,4.92
2019-03-06T13:13:35.229Z,5.37
2019-03-06T13:15:57.035Z,6.20
2019-03-06T13:18:25.862Z,5.87
2019-03-06T13:20:54.662Z,5.78
2019-03-06T13:23:23.391Z,6.85
2019-03-06T13:25:52.158Z,7.20
2019-03-06T13:28:20.895Z,9.48
2019-03-06T13:30:49.759Z,9.35
2019-03-06T13:33:22.866Z,9.33
2019-03-06T13:35:51.534Z,15.95
2019-03-06T13:38:20.307Z,9.13
2019-03-06T13:40:49.037Z,9.95
2019-03-06T13:43:17.778Z,5.87
2019-03-06T13:45:46.579Z,5.53
2019-03-06T13:48:15.322Z,7.35
2019-03-06T13:50:44.054Z,11.60
2019-03-06T13:53:20.112Z,10.30
2019-03-06T13:55:43.170Z,8.95
2019-03-06T13:58:12.240Z,10.95
2019-03-06T14:00:40.974Z,5.78
2019-03-06T14:03:09.643Z,8.90
2019-03-06T14:05:38.377Z,8.00
2019-03-06T14:08:07.511Z,10.82
2019-03-06T14:10:36.450Z,14.45
2019-03-06T14:13:05.293Z,19.10
2019-03-06T14:15:34.026Z,14.70
2019-03-06T14:18:02.768Z,14.75
2019-03-06T14:20:31.506Z,15.05
2019-03-06T14:23:00.318Z,13.80
2019-03-06T14:25:29.323Z,21.27
2019-03-06T14:27:58.051Z,9.98
2019-03-06T14:30:31.941Z,24.82
2019-03-06T14:33:00.673Z,19.00
2019-03-06T14:35:29.413Z,21.12
2019-03-06T14:37:58.318Z,11.38
2019-03-06T14:40:34.386Z,20.77
2019-03-06T14:43:05.291Z,9.43
2019-03-06T14:48:01.910Z,18.45
2019-03-06T14:50:30.656Z,9.35
2019-03-06T14:52:59.789Z,19.90
2019-03-06T14:55:28.479Z,13.72
2019-03-06T14:57:57.177Z,9.63
2019-03-06T15:00:25.987Z,9.95
2019-03-06T15:02:54.722Z,7.10
2019-03-06T15:05:23.498Z,10.03
2019-03-06T15:07:52.480Z,8.33
2019-03-06T15:10:21.620Z,9.30
2019-03-06T15:12:50.316Z,8.70
2019-03-06T15:15:22.727Z,9.15
2019-03-06T15:17:51.430Z,11.43
2019-03-06T15:20:21.299Z,8.93
2019-03-06T15:22:51.240Z,7.33
2019-03-06T15:25:24.221Z,9.07
2019-03-06T15:27:52.947Z,7.67
2019-03-06T15:30:21.796Z,7.22
2019-03-06T15:32:50.500Z,20.20
2019-03-06T15:35:19.537Z,13.55
2019-03-06T15:37:48.237Z,8.33
2019-03-06T15:40:28.278Z,12.07
2019-03-06T15:42:57.259Z,12.93
2019-03-06T15:45:30.406Z,25.62
2019-03-06T15:48:00.744Z,19.20
2019-03-06T15:50:29.571Z,9.48
2019-03-06T15:52:58.313Z,10.90
2019-03-06T15:55:28.745Z,24.55
2019-03-06T15:57:57.492Z,22.82
2019-03-06T16:00:35.063Z,15.43
2019-03-06T16:03:11.741Z,13.85
2019-03-06T16:05:40.983Z,18.25
2019-03-06T16:08:11.340Z,17.65
2019-03-06T16:10:42.695Z,32.20
2019-03-06T16:13:11.488Z,21.48
2019-03-06T16:15:40.240Z,18.20
2019-03-06T16:18:10.651Z,19.00
2019-03-06T16:20:39.555Z,19.85
2019-03-06T16:23:08.395Z,20.35
2019-03-06T16:25:40.032Z,16.52
2019-03-06T16:28:07.758Z,15.25
2019-03-06T16:30:36.506Z,12.65
2019-03-06T16:33:06.278Z,22.25
2019-03-06T16:35:35.188Z,20.55
2019-03-06T16:38:03.993Z,19.67
2019-03-06T16:40:32.828Z,19.92
2019-03-06T16:43:03.169Z,14.47
2019-03-06T16:45:31.918Z,23.70
2019-03-06T16:48:01.268Z,28.32
2019-03-06T16:50:29.995Z,23.98
2019-03-06T16:52:59.006Z,25.72
2019-03-06T16:55:27.918Z,29.75
2019-03-06T16:57:57.324Z,19.20
2019-03-06T17:00:33.937Z,20.50
2019-03-06T17:03:05.561Z,38.90
2019-03-06T17:05:34.428Z,24.35
2019-03-06T17:08:03.428Z,16.93
2019-03-06T17:10:33.241Z,16.70
2019-03-06T17:13:02.176Z,13.50
2019-03-06T17:15:31.897Z,15.98
2019-03-06T17:18:00.941Z,20.12
2019-03-06T17:20:37.328Z,16.95
2019-03-06T17:23:06.562Z,17.02
2019-03-06T17:25:35.354Z,15.95
2019-03-06T17:28:04.436Z,15.60
2019-03-06T17:30:35.213Z,13.45
2019-03-06T17:33:14.492Z,21.30
2019-03-06T17:35:43.274Z,22.75
2019-03-06T17:38:14.655Z,43.45
2019-03-06T17:40:43.887Z,47.33
2019-03-06T17:43:13.124Z,46.73
2019-03-06T17:45:42.263Z,52.55
2019-03-06T17:48:11.006Z,25.43
2019-03-06T17:50:41.230Z,23.62
2019-03-06T17:53:09.966Z,23.80
2019-03-06T17:55:38.705Z,21.62
2019-03-06T17:58:07.457Z,30.50
2019-03-06T18:00:40.807Z,26.68
2019-03-06T18:03:11.229Z,27.10
2019-03-06T18:05:39.956Z,21.42
2019-03-06T18:08:08.737Z,17.57
2019-03-06T18:10:37.574Z,21.02
2019-03-06T18:13:06.315Z,19.92
2019-03-06T18:15:35.057Z,34.55
2019-03-06T18:18:03.797Z,37.98
2019-03-06T18:20:32.539Z,51.90
2019-03-06T18:23:01.388Z,29.20
2019-03-06T18:25:30.106Z,26.35
2019-03-06T18:27:58.847Z,26.33
2019-03-06T18:30:27.962Z,17.80
2019-03-06T18:32:56.710Z,19.57
2019-03-06T18:35:25.377Z,16.25
2019-03-06T18:37:54.123Z,17.50
2019-03-06T18:40:26.293Z,13.43
2019-03-06T18:42:55.157Z,15.50
2019-03-06T18:45:23.886Z,46.65
2019-03-06T18:47:52.597Z,26.85
2019-03-06T18:50:22.222Z,16.20
2019-03-06T18:52:51.135Z,26.33
2019-03-06T18:55:20.889Z,16.00
2019-03-06T18:57:49.628Z,24.37
2019-03-06T19:00:24.311Z,20.05
2019-03-06T19:02:53.216Z,28.85
2019-03-06T19:05:21.953Z,31.55
2019-03-06T19:07:51.107Z,27.07
2019-03-06T19:10:20.672Z,22.15
2019-03-06T19:12:49.582Z,26.17
2019-03-06T19:15:20.455Z,27.85
2019-03-06T19:20:19.128Z,16.00
2019-03-06T19:22:48.379Z,17.82
2019-03-06T19:25:17.474Z,13.45
2019-03-06T19:27:46.421Z,14.83
2019-03-06T19:30:25.332Z,19.90
2019-03-06T19:32:54.398Z,23.92
2019-03-06T19:35:32.199Z,19.15
2019-03-06T19:38:00.945Z,15.03
2019-03-06T19:40:29.955Z,14.03
2019-03-06T19:42:58.710Z,14.38
2019-03-06T19:45:27.459Z,19.12
2019-03-06T19:47:56.193Z,17.25
2019-03-06T19:50:26.109Z,28.65
2019-03-06T19:52:55.292Z,17.75
2019-03-06T19:55:24.466Z,14.03
2019-03-06T19:57:54.777Z,15.98
2019-03-06T20:00:25.313Z,18.37
2019-03-06T20:02:54.159Z,16.32
2019-03-06T20:05:23.993Z,12.98
2019-03-06T20:07:54.313Z,13.28
2019-03-06T20:10:23.247Z,12.33
2019-03-06T20:12:53.211Z,12.53
2019-03-06T20:15:22.601Z,8.97
2019-03-06T20:17:52.025Z,12.35
2019-03-06T20:20:20.871Z,11.53
2019-03-06T20:22:49.603Z,12.65
2019-03-06T20:25:22.599Z,10.50
2019-03-06T20:27:50.191Z,12.07
2019-03-06T20:30:23.786Z,13.68
2019-03-06T20:32:52.714Z,13.00
2019-03-06T20:35:25.756Z,15.10
2019-03-06T20:37:56.093Z,13.80
2019-03-06T20:40:26.462Z,12.98
2019-03-06T20:42:55.157Z,11.12
2019-03-06T20:45:25.382Z,11.48
2019-03-06T20:47:54.184Z,8.90
2019-03-06T20:50:22.898Z,11.55
2019-03-06T20:52:55.325Z,10.18
2019-03-06T20:55:24.054Z,15.88
2019-03-06T20:57:53.169Z,14.80
2019-03-06T21:00:25.444Z,13.18
2019-03-06T21:02:54.979Z,13.50
2019-03-06T21:05:24.175Z,12.95
2019-03-06T21:07:54.173Z,13.70
2019-03-06T21:10:22.915Z,21.20
2019-03-06T21:12:52.209Z,12.18
2019-03-06T21:15:24.311Z,13.72
2019-03-06T21:17:53.037Z,10.75
2019-03-06T21:20:24.329Z,9.95
2019-03-06T21:22:53.154Z,10.58
2019-03-06T21:25:22.473Z,13.05
2019-03-06T21:27:53.210Z,10.85
2019-03-06T21:30:42.381Z,12.07
2019-03-06T21:33:13.750Z,10.55
2019-03-06T21:35:44.306Z,10.98
2019-03-06T21:40:41.259Z,10.53
2019-03-06T21:43:10.113Z,12.07
2019-03-06T21:45:40.471Z,11.33
2019-03-06T21:48:10.095Z,11.12
2019-03-06T21:50:38.788Z,11.03
2019-03-06T21:53:07.628Z,12.00
2019-03-06T21:55:36.386Z,11.68
2019-03-06T21:58:05.115Z,11.83
2019-03-06T22:00:33.850Z,11.65
2019-03-06T22:03:02.651Z,11.75
2019-03-06T22:05:31.379Z,15.00
2019-03-06T22:08:00.075Z,15.25
2019-03-06T22:10:28.923Z,14.80
2019-03-06T22:12:59.802Z,15.55
2019-03-06T22:17:59.953Z,13.80
2019-03-06T22:20:29.248Z,12.82
2019-03-06T22:22:58.150Z,13.20
2019-03-06T22:25:29.932Z,16.23
2019-03-06T22:27:59.986Z,17.37
2019-03-06T22:30:30.431Z,16.32
2019-03-06T22:32:59.699Z,12.73
2019-03-06T22:35:28.476Z,16.00
2019-03-06T22:37:57.602Z,12.80
2019-03-06T22:40:26.300Z,14.28
2019-03-06T22:42:54.971Z,13.85
2019-03-06T22:45:23.713Z,13.60
2019-03-06T22:47:52.384Z,13.18
2019-03-06T22:50:21.119Z,11.35
2019-03-06T22:52:50.163Z,13.40
2019-03-06T22:55:19.798Z,12.10
2019-03-06T22:57:48.542Z,13.35
2019-03-06T23:00:32.515Z,12.20
2019-03-06T23:03:01.279Z,12.47
2019-03-06T23:05:32.290Z,11.83
2019-03-06T23:08:01.018Z,12.07
2019-03-06T23:10:29.832Z,11.15
2019-03-06T23:12:58.744Z,10.60
2019-03-06T23:15:27.511Z,11.38
2019-03-06T23:17:58.011Z,10.93
2019-03-06T23:20:26.750Z,11.30
2019-03-06T23:22:55.675Z,11.03
2019-03-06T23:25:24.417Z,12.45
2019-03-06T23:27:53.174Z,11.60
2019-03-06T23:30:21.917Z,12.20
2019-03-06T23:32:50.797Z,11.05
2019-03-06T23:35:19.484Z,12.05
2019-03-06T23:37:48.197Z,16.73
2019-03-06T23:40:16.931Z,11.45
2019-03-06T23:42:47.785Z,14.90
2019-03-06T23:45:18.796Z,10.28
2019-03-06T23:47:47.570Z,13.58
2019-03-06T23:50:16.293Z,10.30
2019-03-06T23:52:55.490Z,11.28
2019-03-06T23:55:24.266Z,10.93
2019-03-06T23:57:52.939Z,10.35
